Eira — OJJP — position and weather

sailwx.info

Track history (hours):
 
Tides and Currents Weather Stations Pressure Air Temp Water Temp Dewpoint Dewpoint Depression Visibility Wind Speed Wind Dir Waves Ship Positions

Eira

Last reported at 2015-Jan-28 23:30 UTC. Time now 2015-Jan-30 23:24 UTC.
Position N 59°32' E 021°21'.

Length 157 m; draft 9 m.

Type: Cargo ship. MMSI: 230935000.

Date/timePositionNaut miles runAvg speedWind from/ knotsBaromVisibWave heightAir tempDewpointWater temp
2015-Jan-28 23:30N 59°32' E 021°21'8 8.5
2015-Jan-28 22:33N 59°31' E 021°37'53 8.1
2015-Jan-28 16:06N 59°40' E 023°19'5 8.4
2015-Jan-28 15:33N 59°41' E 023°28'9 8.9
2015-Jan-28 14:33N 59°43' E 023°45'9 9.3
2015-Jan-28 13:32N 59°45' E 024°03'10 9.6
2015-Jan-28 12:29N 59°47' E 024°23'10 9.8
2015-Jan-28 11:30N 59°49' E 024°42'5310.2
2015-Jan-28 06:17N 60°00' E 026°26'810.3
2015-Jan-28 05:34N 60°01' E 026°41'2010.0
2015-Jan-28 03:32N 60°05' E 027°21'5 0.2
2015-Jan-26 17:04N 60°01' E 027°14'711.0
2015-Jan-26 16:24N 59°58' E 026°60'1011.6
2015-Jan-26 15:33N 59°59' E 026°41'1312.5
2015-Jan-26 14:33N 59°56' E 026°17'4811.8
2015-Jan-26 10:29N 59°45' E 024°43'1111.7
2015-Jan-26 09:33N 59°43' E 024°22'1411.6
2015-Jan-26 08:23N 59°38' E 023°57'1011.7
2015-Jan-26 07:33N 59°35' E 023°38'17811.8
2015-Jan-25 16:32N 58°41' E 018°09'2411.6
2015-Jan-25 14:29N 58°37' E 017°24'9 0.2
2015-Jan-23 22:11N 58°40' E 017°07'4 6.4
2015-Jan-23 21:32N 58°37' E 017°13'27 3.4
2015-Jan-23 13:33N 58°40' E 018°04'10 9.8
2015-Jan-23 12:33N 58°46' E 018°18'1010.1
2015-Jan-23 11:33N 58°53' E 018°34'  
Track history (hours):
 
Tides and Currents Weather Stations Pressure Air Temp Water Temp Dewpoint Dewpoint Depression Visibility Wind Speed Wind Dir Waves Ship Positions

Eira

Last reported at 2015-Jan-28 23:30 UTC. Time now 2015-Jan-30 23:24 UTC.
Position N 59°32' E 021°21'.

Length 157 m; draft 9 m.

Type: Cargo ship. MMSI: 230935000.

Date/timePositionNaut miles runAvg speedWind from/ knotsBaromVisibWave heightAir tempDewpointWater temp
2015-Jan-28 23:30N 59°32' E 021°21'8 8.5
2015-Jan-28 22:33N 59°31' E 021°37'53 8.1
2015-Jan-28 16:06N 59°40' E 023°19'5 8.4
2015-Jan-28 15:33N 59°41' E 023°28'9 8.9
2015-Jan-28 14:33N 59°43' E 023°45'9 9.3
2015-Jan-28 13:32N 59°45' E 024°03'10 9.6
2015-Jan-28 12:29N 59°47' E 024°23'10 9.8
2015-Jan-28 11:30N 59°49' E 024°42'5310.2
2015-Jan-28 06:17N 60°00' E 026°26'810.3
2015-Jan-28 05:34N 60°01' E 026°41'2010.0
2015-Jan-28 03:32N 60°05' E 027°21'5 0.2
2015-Jan-26 17:04N 60°01' E 027°14'711.0
2015-Jan-26 16:24N 59°58' E 026°60'1011.6
2015-Jan-26 15:33N 59°59' E 026°41'1312.5
2015-Jan-26 14:33N 59°56' E 026°17'4811.8
2015-Jan-26 10:29N 59°45' E 024°43'1111.7
2015-Jan-26 09:33N 59°43' E 024°22'1411.6
2015-Jan-26 08:23N 59°38' E 023°57'1011.7
2015-Jan-26 07:33N 59°35' E 023°38'17811.8
2015-Jan-25 16:32N 58°41' E 018°09'2411.6
2015-Jan-25 14:29N 58°37' E 017°24'9 0.2
2015-Jan-23 22:11N 58°40' E 017°07'4 6.4
2015-Jan-23 21:32N 58°37' E 017°13'27 3.4
2015-Jan-23 13:33N 58°40' E 018°04'10 9.8
2015-Jan-23 12:33N 58°46' E 018°18'1010.1
2015-Jan-23 11:33N 58°53' E 018°34'  

Dump ship's entire track history